Time;durP1;ratioP1;P1;durP2;ratioP2;P2;SDS_P1;SDS_P2;PMS_P1;PMS_P2;Temp;Humidity;BMP_temperature;BMP_pressure;BME280_temperature;BME280_humidity;BME280_pressure;Samples;Min_cycle;Max_cycle;Signal;HPM_P1;HPM_P2
2021/07/13 00:00:45;;;;;;;8.27;6.23;;;;;;;;;;346076;153;859525;-58
2021/07/13 00:01:47;;;;;;;12.34;6.83;;;;;;;;;;344829;153;857542;-59
2021/07/13 00:02:48;;;;;;;11.49;6.55;;;;;;;;;;346771;150;865080;-59
2021/07/13 00:03:51;;;;;;;8.60;6.38;;;;;;;;;;348394;150;857713;-58
2021/07/13 00:04:53;;;;;;;9.51;6.53;;;;;;;;;;349509;154;857441;-59
2021/07/13 00:05:54;;;;;;;10.76;6.59;;;;;;;;;;350059;153;858133;-58
2021/07/13 00:06:58;;;;;;;9.87;6.19;;;;;;;;;;349000;150;857289;-58
2021/07/13 00:07:59;;;;;;;11.44;6.00;;;;;;;;;;349919;153;859708;-59
2021/07/13 00:09:02;;;;;;;11.24;6.89;;;;;;;;;;350446;153;857259;-58
2021/07/13 00:10:05;;;;;;;7.89;5.79;;;;;;;;;;348060;150;866707;-59
2021/07/13 00:11:06;;;;;;;10.71;6.39;;;;;;;;;;345825;153;857335;-59
2021/07/13 00:12:09;;;;;;;10.93;6.34;;;;;;;;;;344716;156;859143;-58
2021/07/13 00:13:10;;;;;;;12.84;6.51;;;;;;;;;;347965;153;857290;-58
2021/07/13 00:14:12;;;;;;;8.14;6.03;;;;;;;;;;348427;150;857375;-58
2021/07/13 00:15:15;;;;;;;9.87;5.98;;;;;;;;;;347822;153;857277;-58
2021/07/13 00:16:17;;;;;;;10.04;6.20;;;;;;;;;;347680;153;857292;-58
2021/07/13 00:17:19;;;;;;;11.09;6.28;;;;;;;;;;348143;150;857383;-58
2021/07/13 00:18:21;;;;;;;12.70;6.39;;;;;;;;;;347102;152;859278;-58
2021/07/13 00:19:22;;;;;;;10.73;6.26;;;;;;;;;;344779;156;859606;-58
2021/07/13 00:20:25;;;;;;;10.46;5.86;;;;;;;;;;345074;150;866446;-58
2021/07/13 00:21:27;;;;;;;9.86;6.62;;;;;;;;;;347472;150;857385;-59
2021/07/13 00:22:28;;;;;;;8.33;5.51;;;;;;;;;;350456;153;860711;-58
2021/07/13 00:23:30;;;;;;;10.40;6.46;;;;;;;;;;350952;153;859283;-59
2021/07/13 00:24:32;;;;;;;10.04;6.39;;;;;;;;;;347049;153;858262;-59
2021/07/13 00:25:33;;;;;;;8.39;6.36;;;;;;;;;;347475;153;858084;-59
2021/07/13 00:26:36;;;;;;;9.05;6.55;;;;;;;;;;344774;155;857326;-58
2021/07/13 00:27:38;;;;;;;8.93;6.37;;;;;;;;;;347688;152;865726;-59
2021/07/13 00:28:39;;;;;;;9.13;6.38;;;;;;;;;;348811;152;857211;-58
2021/07/13 00:29:41;;;;;;;9.34;6.15;;;;;;;;;;349992;153;857342;-58
2021/07/13 00:30:44;;;;;;;17.59;5.96;;;;;;;;;;350600;153;857799;-59
2021/07/13 00:31:46;;;;;;;12.54;7.12;;;;;;;;;;349060;150;858725;-59
2021/07/13 00:32:47;;;;;;;9.76;6.24;;;;;;;;;;348999;153;866726;-59
2021/07/13 00:33:49;;;;;;;8.89;5.84;;;;;;;;;;350777;153;857331;-58
2021/07/13 00:34:50;;;;;;;13.76;5.86;;;;;;;;;;346333;153;859039;-58
2021/07/13 00:35:52;;;;;;;9.07;6.56;;;;;;;;;;348193;150;858759;-59
2021/07/13 00:36:54;;;;;;;9.15;6.14;;;;;;;;;;349197;152;859131;-59
2021/07/13 00:37:55;;;;;;;7.58;5.97;;;;;;;;;;350832;153;859597;-58
2021/07/13 00:38:57;;;;;;;9.90;6.28;;;;;;;;;;349183;150;859109;-59
2021/07/13 00:39:58;;;;;;;9.09;6.34;;;;;;;;;;347188;153;858869;-58
2021/07/13 00:41:01;;;;;;;9.40;6.19;;;;;;;;;;344640;153;857414;-58
2021/07/13 00:42:03;;;;;;;8.54;5.96;;;;;;;;;;343470;152;857502;-59
2021/07/13 00:43:04;;;;;;;13.52;6.49;;;;;;;;;;343478;154;857371;-59
2021/07/13 00:44:06;;;;;;;12.36;6.44;;;;;;;;;;346246;155;864908;-59
2021/07/13 00:45:08;;;;;;;8.81;6.06;;;;;;;;;;346368;155;857119;-58
2021/07/13 00:46:11;;;;;;;10.58;6.30;;;;;;;;;;343268;152;857308;-58
2021/07/13 00:47:13;;;;;;;9.93;6.30;;;;;;;;;;343658;155;858204;-58
2021/07/13 00:48:14;;;;;;;11.39;6.67;;;;;;;;;;344318;155;864960;-58
2021/07/13 00:49:16;;;;;;;11.98;6.54;;;;;;;;;;343325;153;866832;-58
2021/07/13 00:50:20;;;;;;;8.05;6.08;;;;;;;;;;344742;152;857339;-58
2021/07/13 00:51:22;;;;;;;11.06;6.62;;;;;;;;;;343984;154;857396;-58
2021/07/13 00:52:23;;;;;;;12.16;6.84;;;;;;;;;;339957;155;858413;-58
2021/07/13 00:53:25;;;;;;;14.35;7.34;;;;;;;;;;344561;153;857500;-57
2021/07/13 00:54:27;;;;;;;11.65;6.49;;;;;;;;;;344430;152;857384;-58
2021/07/13 00:55:28;;;;;;;9.73;6.49;;;;;;;;;;345157;155;857492;-58
2021/07/13 00:56:30;;;;;;;9.39;6.48;;;;;;;;;;343246;153;866160;-58
2021/07/13 00:57:32;;;;;;;9.97;6.45;;;;;;;;;;344729;152;864947;-58
2021/07/13 00:58:33;;;;;;;8.60;6.64;;;;;;;;;;346012;154;857312;-58
2021/07/13 00:59:35;;;;;;;8.31;5.98;;;;;;;;;;345967;155;859674;-58
2021/07/13 01:00:41;;;;;;;12.26;6.69;;;;;;;;;;343551;152;859164;-59
2021/07/13 01:01:42;;;;;;;9.75;6.84;;;;;;;;;;345335;154;858175;-59
2021/07/13 01:02:44;;;;;;;10.40;6.61;;;;;;;;;;345925;155;858044;-59
2021/07/13 01:03:46;;;;;;;9.04;6.27;;;;;;;;;;344351;153;867013;-58
2021/07/13 01:04:48;;;;;;;12.03;6.51;;;;;;;;;;345135;155;865025;-59
2021/07/13 01:05:50;;;;;;;8.85;6.47;;;;;;;;;;346247;155;859035;-59
2021/07/13 01:06:59;;;;;;;8.86;7.14;;;;;;;;;;342948;155;858291;-59
2021/07/13 01:08:03;;;;;;;7.66;6.38;;;;;;;;;;343015;152;865007;-59
2021/07/13 01:09:05;;;;;;;9.02;6.59;;;;;;;;;;344515;154;857400;-59
2021/07/13 01:10:18;;;;;;;9.30;6.58;;;;;;;;;;342270;155;857950;-59
2021/07/13 01:11:24;;;;;;;9.93;7.07;;;;;;;;;;343178;152;857377;-58
2021/07/13 01:12:34;;;;;;;8.45;7.01;;;;;;;;;;342837;155;858245;-58
2021/07/13 01:13:44;;;;;;;9.54;6.74;;;;;;;;;;345700;155;858907;-60
2021/07/13 01:14:53;;;;;;;9.71;7.04;;;;;;;;;;337643;153;857360;-59
2021/07/13 01:16:02;;;;;;;10.23;7.08;;;;;;;;;;345106;154;865813;-59
2021/07/13 01:17:11;;;;;;;8.76;6.70;;;;;;;;;;345968;155;858939;-59
2021/07/13 01:18:19;;;;;;;8.94;6.82;;;;;;;;;;345519;153;857814;-60
2021/07/13 01:19:40;;;;;;;12.77;7.43;;;;;;;;;;343743;152;857250;-59
2021/07/13 01:20:54;;;;;;;8.56;6.53;;;;;;;;;;345030;155;857277;-59
2021/07/13 01:21:57;;;;;;;7.92;6.77;;;;;;;;;;342498;152;857786;-59
2021/07/13 01:23:04;;;;;;;8.34;6.45;;;;;;;;;;345402;155;858018;-59
2021/07/13 01:24:16;;;;;;;11.13;6.85;;;;;;;;;;344821;156;857341;-58
2021/07/13 01:25:32;;;;;;;9.11;6.74;;;;;;;;;;343322;154;859120;-60
2021/07/13 01:26:36;;;;;;;10.39;7.23;;;;;;;;;;343887;152;857694;-59
2021/07/13 01:27:49;;;;;;;9.78;6.97;;;;;;;;;;342885;156;857279;-59
2021/07/13 01:28:52;;;;;;;15.34;7.72;;;;;;;;;;344556;153;857302;-59
2021/07/13 01:29:54;;;;;;;9.99;7.36;;;;;;;;;;345223;152;859411;-59
2021/07/13 01:31:01;;;;;;;11.53;7.15;;;;;;;;;;343519;155;859241;-59
2021/07/13 01:32:03;;;;;;;11.48;7.22;;;;;;;;;;341095;155;857752;-59
2021/07/13 01:33:05;;;;;;;8.29;6.68;;;;;;;;;;342636;152;857281;-59
2021/07/13 01:34:08;;;;;;;11.18;7.22;;;;;;;;;;343526;153;857124;-59
2021/07/13 01:35:10;;;;;;;10.29;7.38;;;;;;;;;;342937;155;864967;-59
2021/07/13 01:36:14;;;;;;;9.82;7.08;;;;;;;;;;340629;153;857860;-58
2021/07/13 01:37:16;;;;;;;9.89;7.13;;;;;;;;;;340528;154;857851;-59
2021/07/13 01:38:18;;;;;;;8.00;6.46;;;;;;;;;;346468;155;858222;-59
2021/07/13 01:39:19;;;;;;;8.91;6.72;;;;;;;;;;344376;152;857986;-59
2021/07/13 01:40:23;;;;;;;10.34;7.33;;;;;;;;;;344250;155;858279;-58
2021/07/13 01:41:24;;;;;;;9.59;7.19;;;;;;;;;;338604;155;857257;-58
2021/07/13 01:42:26;;;;;;;8.99;7.01;;;;;;;;;;336675;157;858692;-60
2021/07/13 01:43:28;;;;;;;9.09;6.54;;;;;;;;;;342723;152;865497;-60
2021/07/13 01:44:30;;;;;;;10.42;6.46;;;;;;;;;;344328;154;864908;-60
2021/07/13 01:45:31;;;;;;;9.72;7.24;;;;;;;;;;344525;156;857178;-58
2021/07/13 01:46:34;;;;;;;8.12;6.64;;;;;;;;;;343602;154;857740;-58
2021/07/13 01:47:36;;;;;;;7.65;6.36;;;;;;;;;;344003;152;857770;-58
2021/07/13 01:48:37;;;;;;;13.84;6.69;;;;;;;;;;344403;156;857226;-58
2021/07/13 01:49:39;;;;;;;8.16;6.23;;;;;;;;;;344567;156;857258;-58
2021/07/13 01:50:43;;;;;;;7.28;6.31;;;;;;;;;;342811;154;857762;-59
2021/07/13 01:51:47;;;;;;;9.07;6.12;;;;;;;;;;344062;154;857204;-58
2021/07/13 01:52:48;;;;;;;7.94;6.36;;;;;;;;;;343118;156;857295;-58
2021/07/13 01:53:50;;;;;;;10.36;6.56;;;;;;;;;;347146;152;857127;-58
2021/07/13 01:54:51;;;;;;;8.76;6.47;;;;;;;;;;343396;152;867033;-58
2021/07/13 01:55:53;;;;;;;7.85;6.25;;;;;;;;;;344090;155;864915;-58
2021/07/13 01:56:56;;;;;;;9.58;6.41;;;;;;;;;;344527;156;857455;-59
2021/07/13 01:57:58;;;;;;;8.14;6.23;;;;;;;;;;342474;152;865016;-59
2021/07/13 01:59:00;;;;;;;8.95;6.09;;;;;;;;;;344480;154;858176;-58
2021/07/13 02:00:02;;;;;;;8.86;6.21;;;;;;;;;;342052;156;857304;-59
2021/07/13 02:01:06;;;;;;;10.12;6.35;;;;;;;;;;339983;152;864921;-58
2021/07/13 02:02:08;;;;;;;8.17;6.53;;;;;;;;;;344001;152;857354;-59
2021/07/13 02:03:09;;;;;;;9.95;6.25;;;;;;;;;;344439;156;866059;-58
2021/07/13 02:04:11;;;;;;;8.66;6.11;;;;;;;;;;341180;156;857287;-58
2021/07/13 02:07:04;;;;;;;8.63;6.48;;;;;;;20.69;65.28;99846.25;374435;142;879453;-59
2021/07/13 02:08:06;;;;;;;13.74;6.10;;;;;;;20.60;64.75;99857.25;364642;147;857120;-59
2021/07/13 02:09:09;;;;;;;8.60;6.15;;;;;;;20.58;64.36;99855.55;362340;144;859189;-59
2021/07/13 02:10:11;;;;;;;9.46;6.08;;;;;;;20.57;64.73;99852.98;362572;148;857258;-59
2021/07/13 02:11:13;;;;;;;13.12;6.25;;;;;;;20.58;64.51;99855.55;365334;146;857799;-58
2021/07/13 02:12:17;;;;;;;8.26;6.16;;;;;;;20.59;64.50;99843.23;362848;145;859317;-58
2021/07/13 02:13:19;;;;;;;9.45;6.30;;;;;;;20.59;64.50;99843.23;362637;145;866017;-59
2021/07/13 02:14:21;;;;;;;9.99;6.65;;;;;;;20.55;64.34;99853.08;364025;148;865053;-58
2021/07/13 02:15:22;;;;;;;17.02;7.04;;;;;;;20.55;64.06;99860.10;362417;146;857348;-58
2021/07/13 02:16:25;;;;;;;11.13;6.53;;;;;;;20.56;63.73;99853.91;362768;145;865165;-58
2021/07/13 02:17:31;;;;;;;9.37;6.61;;;;;;;20.56;63.73;99853.91;367330;145;857286;-58
2021/07/13 02:18:30;;;;;;;10.53;6.41;;;;;;;20.57;63.68;99858.25;360194;146;865095;-58
2021/07/13 02:19:32;;;;;;;10.67;6.42;;;;;;;20.57;63.58;99859.11;360682;145;866241;-58
2021/07/13 02:20:34;;;;;;;7.79;5.91;;;;;;;20.58;63.31;99863.44;361595;145;865769;-58
2021/07/13 02:21:36;;;;;;;12.67;6.69;;;;;;;20.57;63.27;99864.37;360250;147;857269;-58
2021/07/13 02:22:38;;;;;;;9.53;6.22;;;;;;;20.58;63.03;99865.20;359920;146;867124;-59
2021/07/13 02:23:41;;;;;;;10.88;7.26;;;;;;;20.58;63.05;99868.70;363029;145;857316;-59
2021/07/13 02:24:42;;;;;;;11.01;6.89;;;;;;;20.61;63.01;99865.05;361316;146;866473;-59
2021/07/13 02:25:45;;;;;;;10.75;6.77;;;;;;;20.62;62.94;99864.13;362594;146;865082;-58
2021/07/13 02:27:03;;;;;;;12.24;6.81;;;;;;;20.61;62.82;99864.21;364180;146;864971;-58
2021/07/13 02:28:12;;;;;;;10.72;6.56;;;;;;;20.57;62.86;99856.48;362680;146;864826;-59
2021/07/13 02:29:26;;;;;;;9.26;6.07;;;;;;;20.51;63.04;99863.81;362543;146;857232;-58
2021/07/13 02:30:30;;;;;;;11.63;6.38;;;;;;;20.47;63.11;99857.88;362924;144;857338;-58
2021/07/13 02:31:34;;;;;;;8.99;6.70;;;;;;;20.49;63.22;99853.39;362723;146;857720;-59
2021/07/13 02:32:50;;;;;;;9.62;6.71;;;;;;;20.49;62.99;99856.02;354934;149;867308;-60
2021/07/13 02:33:56;;;;;;;7.82;6.27;;;;;;;20.50;63.09;99855.09;362645;145;859209;-59
2021/07/13 02:34:59;;;;;;;10.50;6.14;;;;;;;20.46;63.06;99850.92;363446;146;857264;-57
2021/07/13 02:36:03;;;;;;;13.19;6.83;;;;;;;20.43;63.14;99861.59;362684;148;858682;-58
2021/07/13 02:37:05;;;;;;;10.11;6.54;;;;;;;20.44;63.62;99860.66;364662;144;859008;-58
2021/07/13 02:38:08;;;;;;;7.17;6.21;;;;;;;20.45;63.89;99859.73;362845;145;857267;-58
2021/07/13 02:39:10;;;;;;;10.37;6.21;;;;;;;20.49;63.89;99863.05;362679;148;857166;-59
2021/07/13 02:40:13;;;;;;;8.54;6.39;;;;;;;20.52;63.86;99862.89;364823;144;867376;-58
2021/07/13 02:41:16;;;;;;;8.04;6.01;;;;;;;20.52;63.86;99862.89;362485;145;865027;-58
2021/07/13 02:42:18;;;;;;;7.85;6.41;;;;;;;20.56;63.60;99864.44;362597;148;864750;-58
2021/07/13 02:43:19;;;;;;;7.45;6.06;;;;;;;20.56;63.50;99867.93;362769;147;857429;-59
2021/07/13 02:44:22;;;;;;;7.87;6.16;;;;;;;20.52;63.44;99868.15;362640;145;864898;-58
2021/07/13 02:45:24;;;;;;;11.04;7.11;;;;;;;20.50;63.81;99868.24;365923;145;866334;-58
2021/07/13 02:46:28;;;;;;;10.89;6.95;;;;;;;20.49;63.78;99877.06;369421;146;857383;-58
2021/07/13 02:47:30;;;;;;;7.74;6.94;;;;;;;20.48;64.03;99874.49;366229;145;857380;-58
2021/07/13 02:48:36;;;;;;;10.88;7.53;;;;;;;20.44;64.00;99873.81;363501;144;857170;-58
2021/07/13 02:49:51;;;;;;;10.59;8.29;;;;;;;20.41;64.43;99872.17;362483;148;857430;-59
2021/07/13 02:50:53;;;;;;;12.37;9.47;;;;;;;20.42;64.59;99875.67;363039;145;858105;-58
2021/07/13 02:51:55;;;;;;;11.74;9.20;;;;;;;20.44;64.50;99877.28;362494;145;859282;-59
2021/07/13 02:52:57;;;;;;;11.01;8.27;;;;;;;20.43;64.63;99878.20;362891;145;857915;-59
2021/07/13 02:53:59;;;;;;;11.30;8.54;;;;;;;20.43;64.63;99878.20;362734;148;857237;-59
2021/07/13 02:55:06;;;;;;;11.06;8.57;;;;;;;20.42;64.58;99871.25;362828;146;864878;-58
2021/07/13 02:56:08;;;;;;;9.41;7.94;;;;;;;20.40;64.81;99862.58;364271;145;864812;-58
2021/07/13 02:57:10;;;;;;;10.51;8.01;;;;;;;20.41;65.15;99872.17;362810;146;860211;-58
2021/07/13 02:58:12;;;;;;;10.09;8.15;;;;;;;20.41;65.15;99872.17;366392;145;864825;-58
2021/07/13 02:59:15;;;;;;;11.76;8.56;;;;;;;20.44;65.54;99873.81;357390;148;858553;-58
2021/07/13 03:00:19;;;;;;;10.16;8.12;;;;;;;20.49;65.34;99871.80;354333;148;865879;-58
2021/07/13 03:01:21;;;;;;;12.79;8.34;;;;;;;20.50;65.02;99870.87;364169;146;857380;-59
2021/07/13 03:02:23;;;;;;;11.86;8.00;;;;;;;20.54;65.20;99898.72;363078;145;858358;-58
2021/07/13 03:03:25;;;;;;;10.05;8.13;;;;;;;20.54;65.20;99898.72;364322;144;865015;-58
2021/07/13 03:04:27;;;;;;;10.83;8.09;;;;;;;20.52;65.11;99874.27;364426;146;859059;-57
2021/07/13 03:05:29;;;;;;;14.16;7.83;;;;;;;20.56;65.19;99877.59;354349;150;866227;-58
2021/07/13 03:06:31;;;;;;;8.30;7.07;;;;;;;;;;353368;146;864942;-59
2021/07/13 03:07:33;;;;;;;10.06;7.07;;;;;;;;;;363253;145;857278;-58
2021/07/13 03:08:34;;;;;;;9.40;7.09;;;;;;;;;;362928;148;857208;-57
2021/07/13 03:09:36;;;;;;;9.64;7.07;;;;;;;;;;365039;144;865449;-57
2021/07/13 03:10:38;;;;;;;11.10;7.65;;;;;;;;;;363613;144;856864;-58
2021/07/13 03:11:40;;;;;;;10.60;7.91;;;;;;;;;;363363;148;856202;-58
2021/07/13 03:12:42;;;;;;;12.34;8.55;;;;;;;;;;366916;144;863907;-58
2021/07/13 03:13:44;;;;;;;9.83;7.09;;;;;;;;;;363216;144;856464;-58
2021/07/13 03:14:45;;;;;;;10.66;8.41;;;;;;;;;;363556;145;857295;-58
2021/07/13 03:15:47;;;;;;;14.05;8.35;;;;;;;;;;363220;148;857308;-58
2021/07/13 03:16:49;;;;;;;12.51;8.62;;;;;;;;;;363857;144;857332;-58
2021/07/13 03:17:54;;;;;;;10.02;8.48;;;;;;;;;;364001;144;856303;-58
2021/07/13 03:18:55;;;;;;;12.75;9.06;;;;;;;;;;364323;145;858947;-59
2021/07/13 03:19:57;;;;;;;14.26;9.67;;;;;;;;;;366948;144;866362;-58
2021/07/13 03:21:00;;;;;;;16.57;10.11;;;;;;;;;;363658;144;857876;-58
2021/07/13 03:22:01;;;;;;;14.09;10.63;;;;;;;;;;363603;145;857215;-58
2021/07/13 03:23:03;;;;;;;13.02;11.33;;;;;;;;;;363529;145;857550;-58
2021/07/13 03:24:05;;;;;;;18.28;13.26;;;;;;;;;;363363;144;866453;-58
2021/07/13 03:25:07;;;;;;;18.06;13.36;;;;;;;;;;363442;144;865048;-58
2021/07/13 03:26:09;;;;;;;15.03;13.05;;;;;;;;;;362882;145;857275;-57
2021/07/13 03:27:11;;;;;;;17.67;13.46;;;;;;;;;;366033;145;860758;-58
2021/07/13 03:28:13;;;;;;;17.21;13.21;;;;;;;;;;363551;144;857782;-58
2021/07/13 03:29:14;;;;;;;19.87;13.54;;;;;;;;;;368226;145;857262;-59
2021/07/13 03:30:18;;;;;;;19.16;13.29;;;;;;;;;;363108;145;857266;-59
2021/07/13 03:31:20;;;;;;;18.57;13.01;;;;;;;;;;364012;144;857483;-58
2021/07/13 03:32:21;;;;;;;23.13;13.12;;;;;;;;;;363004;144;858779;-57
2021/07/13 03:33:23;;;;;;;18.19;12.96;;;;;;;;;;363774;145;857403;-57
2021/07/13 03:34:25;;;;;;;20.61;13.76;;;;;;;;;;363170;148;857358;-57
2021/07/13 03:35:27;;;;;;;21.48;15.09;;;;;;;;;;364591;145;856936;-56
2021/07/13 03:36:29;;;;;;;26.23;16.93;;;;;;;;;;367617;145;857359;-57
2021/07/13 03:37:31;;;;;;;20.63;15.63;;;;;;;;;;363112;145;857176;-56
2021/07/13 03:38:32;;;;;;;18.26;13.30;;;;;;;;;;364415;144;857193;-57
2021/07/13 03:39:34;;;;;;;19.34;14.26;;;;;;;;;;364001;145;857245;-57
2021/07/13 03:40:37;;;;;;;25.59;13.47;;;;;;;;;;363633;145;863616;-57
2021/07/13 03:41:38;;;;;;;17.91;12.91;;;;;;;;;;363364;144;857223;-57
2021/07/13 03:42:40;;;;;;;13.67;11.22;;;;;;;;;;363897;144;857395;-57
2021/07/13 03:43:42;;;;;;;16.71;11.80;;;;;;;;;;364072;145;859392;-55
2021/07/13 03:44:43;;;;;;;14.78;10.47;;;;;;;;;;364662;144;865816;-57
2021/07/13 03:45:45;;;;;;;17.41;11.16;;;;;;;;;;365596;144;858925;-56
2021/07/13 03:46:48;;;;;;;14.63;10.34;;;;;;;;;;363456;144;857261;-57
2021/07/13 03:47:51;;;;;;;13.36;10.34;;;;;;;;;;363736;145;857432;-57
2021/07/13 03:48:53;;;;;;;15.02;9.82;;;;;;;;;;363938;144;857221;-57
2021/07/13 03:49:56;;;;;;;13.01;10.14;;;;;;;;;;365037;144;856519;-57
2021/07/13 03:50:58;;;;;;;12.94;10.14;;;;;;;;;;362952;148;857242;-58
2021/07/13 03:51:59;;;;;;;14.02;10.29;;;;;;;;;;363572;144;857346;-56
2021/07/13 03:53:01;;;;;;;11.81;9.19;;;;;;;;;;364340;144;857106;-57
2021/07/13 03:54:03;;;;;;;12.75;9.22;;;;;;;;;;363507;144;859513;-55
2021/07/13 03:55:05;;;;;;;15.49;8.91;;;;;;;;;;364434;145;857339;-56
2021/07/13 03:56:07;;;;;;;11.28;9.08;;;;;;;;;;365628;144;858981;-56
2021/07/13 03:57:08;;;;;;;11.86;9.14;;;;;;;;;;364357;144;857385;-56
2021/07/13 03:58:10;;;;;;;12.19;8.66;;;;;;;;;;363037;148;857278;-57
2021/07/13 03:59:12;;;;;;;13.85;8.26;;;;;;;;;;365661;144;857327;-57
2021/07/13 04:00:15;;;;;;;10.09;7.93;;;;;;;;;;364857;145;859093;-57
2021/07/13 04:01:17;;;;;;;12.32;8.03;;;;;;;;;;365859;145;858253;-57
2021/07/13 04:02:19;;;;;;;13.06;7.80;;;;;;;;;;364638;145;865099;-56
2021/07/13 04:03:20;;;;;;;10.75;7.37;;;;;;;;;;364027;144;858195;-57
2021/07/13 04:04:22;;;;;;;10.30;7.50;;;;;;;;;;365510;144;857519;-56
2021/07/13 04:05:23;;;;;;;9.26;7.21;;;;;;;;;;363120;147;860872;-58
2021/07/13 04:06:26;;;;;;;11.03;7.74;;;;;;;;;;362828;144;859223;-59
2021/07/13 04:07:28;;;;;;;8.13;7.11;;;;;;;;;;363879;144;864509;-56
2021/07/13 04:08:29;;;;;;;9.15;6.89;;;;;;;;;;362859;146;860314;-57
2021/07/13 04:09:31;;;;;;;9.53;7.04;;;;;;;;;;362590;145;858527;-57
2021/07/13 04:10:33;;;;;;;8.30;6.45;;;;;;;;;;362676;146;857190;-57
2021/07/13 04:11:35;;;;;;;9.29;6.75;;;;;;;;;;367871;146;858086;-56
2021/07/13 04:12:36;;;;;;;11.56;7.41;;;;;;;;;;363343;146;866673;-56
2021/07/13 04:13:38;;;;;;;11.02;7.09;;;;;;;;;;365805;145;857295;-55
2021/07/13 04:14:39;;;;;;;9.98;6.41;;;;;;;;;;362575;145;857224;-57
2021/07/13 04:15:42;;;;;;;8.92;6.78;;;;;;;;;;362953;147;859065;-56
2021/07/13 04:16:45;;;;;;;8.04;7.20;;;;;;;;;;363025;145;858762;-55
2021/07/13 04:17:46;;;;;;;11.06;7.00;;;;;;;;;;363476;145;857305;-55
2021/07/13 04:18:48;;;;;;;10.81;6.92;;;;;;;;;;364314;145;859042;-55
2021/07/13 04:19:50;;;;;;;11.30;7.22;;;;;;;;;;364985;146;858525;-57
2021/07/13 04:20:53;;;;;;;10.86;6.47;;;;;;;;;;365286;144;859982;-58
2021/07/13 04:21:54;;;;;;;11.39;6.44;;;;;;;;;;364578;145;857226;-59
2021/07/13 04:22:56;;;;;;;9.67;6.26;;;;;;;;;;365549;144;857447;-58
2021/07/13 04:23:58;;;;;;;7.50;5.96;;;;;;;;;;365119;145;859174;-58
2021/07/13 04:24:59;;;;;;;9.18;6.49;;;;;;;;;;364192;145;864767;-60
2021/07/13 04:26:02;;;;;;;9.01;5.99;;;;;;;;;;363053;146;857292;-58
2021/07/13 04:27:04;;;;;;;9.35;6.13;;;;;;;;;;365437;146;857244;-57
2021/07/13 04:28:05;;;;;;;6.13;5.34;;;;;;;;;;363426;145;857248;-59
2021/07/13 04:29:07;;;;;;;9.13;6.08;;;;;;;;;;365012;145;866236;-59
2021/07/13 04:30:10;;;;;;;7.48;5.71;;;;;;;;;;364902;145;859657;-57
2021/07/13 04:31:12;;;;;;;7.76;6.36;;;;;;;;;;363145;145;858742;-56
2021/07/13 04:32:13;;;;;;;8.17;6.45;;;;;;;;;;363626;145;858290;-59
2021/07/13 04:33:15;;;;;;;8.14;6.27;;;;;;;;;;362854;145;857286;-58
2021/07/13 04:34:17;;;;;;;9.54;6.64;;;;;;;;;;362950;147;857300;-56
2021/07/13 04:35:18;;;;;;;10.53;6.61;;;;;;;;;;365947;145;857287;-58
2021/07/13 04:36:21;;;;;;;11.00;7.43;;;;;;;;;;363442;145;857331;-56
2021/07/13 04:37:22;;;;;;;16.77;7.93;;;;;;;;;;362875;148;857357;-58
2021/07/13 04:38:24;;;;;;;12.36;8.32;;;;;;;;;;364797;145;859264;-57
2021/07/13 04:39:26;;;;;;;14.07;7.38;;;;;;;;;;364369;145;866394;-58
2021/07/13 04:40:29;;;;;;;13.44;8.11;;;;;;;;;;363193;146;857525;-58
2021/07/13 04:41:31;;;;;;;15.86;8.22;;;;;;;;;;362494;148;857210;-58
2021/07/13 04:42:33;;;;;;;14.76;7.20;;;;;;;;;;364021;145;857632;-57
2021/07/13 04:43:34;;;;;;;14.50;7.31;;;;;;;;;;362367;145;866139;-57
2021/07/13 04:44:36;;;;;;;12.37;7.73;;;;;;;;;;362660;146;860377;-57
2021/07/13 04:45:37;;;;;;;11.71;7.09;;;;;;;;;;362687;145;858149;-58
2021/07/13 04:46:39;;;;;;;13.16;6.41;;;;;;;;;;363898;145;865027;-58
2021/07/13 04:47:40;;;;;;;20.14;6.94;;;;;;;;;;362956;146;864845;-56
2021/07/13 04:48:42;;;;;;;17.38;6.65;;;;;;;;;;363226;145;857243;-57
2021/07/13 04:49:44;;;;;;;10.21;6.39;;;;;;;;;;362543;146;857204;-58
2021/07/13 04:50:45;;;;;;;8.09;6.37;;;;;;;;;;362865;145;857459;-58
2021/07/13 04:51:47;;;;;;;9.32;6.29;;;;;;;;;;351330;151;857384;-58
2021/07/13 04:52:49;;;;;;;7.50;6.35;;;;;;;;;;349963;150;857506;-56
2021/07/13 04:53:51;;;;;;;9.35;6.07;;;;;;;;;;361687;145;860039;-57
2021/07/13 04:54:52;;;;;;;11.75;6.68;;;;;;;;;;361632;148;858421;-58
2021/07/13 04:55:54;;;;;;;11.86;6.27;;;;;;;;;;363035;145;857228;-58
2021/07/13 04:56:56;;;;;;;14.55;6.45;;;;;;;;;;363286;145;857333;-57
2021/07/13 04:57:58;;;;;;;11.05;6.18;;;;;;;;;;363491;146;857336;-57
2021/07/13 04:59:00;;;;;;;14.98;6.34;;;;;;;;;;367303;144;857317;-57
2021/07/13 05:00:02;;;;;;;11.97;6.31;;;;;;;;;;362891;145;857277;-57
2021/07/13 05:01:06;;;;;;;9.10;6.33;;;;;;;;;;362949;146;865739;-57
2021/07/13 05:02:07;;;;;;;8.73;5.66;;;;;;;;;;362782;147;858151;-58
2021/07/13 05:03:09;;;;;;;10.14;5.90;;;;;;;;;;363335;144;864837;-58
2021/07/13 05:04:10;;;;;;;14.36;5.96;;;;;;;;;;364729;146;857305;-57
2021/07/13 05:05:14;;;;;;;8.86;5.54;;;;;;;;;;363703;145;857343;-57
2021/07/13 05:06:16;;;;;;;9.60;5.33;;;;;;;;;;362352;147;857357;-57
2021/07/13 05:07:17;;;;;;;8.61;5.54;;;;;;;;;;362881;146;857219;-58
2021/07/13 05:08:21;;;;;;;14.45;5.96;;;;;;;;;;362601;145;859271;-56
2021/07/13 05:09:22;;;;;;;6.89;5.38;;;;;;;;;;362807;147;858654;-56
2021/07/13 05:10:25;;;;;;;6.86;5.17;;;;;;;;;;358606;149;857558;-57
2021/07/13 05:11:27;;;;;;;11.99;5.16;;;;;;;;;;356548;146;857495;-57
2021/07/13 05:12:28;;;;;;;9.85;5.06;;;;;;;;;;362738;145;857451;-57
2021/07/13 05:13:30;;;;;;;7.82;4.91;;;;;;;;;;363537;146;857232;-60
2021/07/13 05:14:32;;;;;;;7.90;4.77;;;;;;;;;;363041;145;858885;-59
2021/07/13 05:15:33;;;;;;;11.86;4.74;;;;;;;;;;363250;145;858762;-60
2021/07/13 05:16:35;;;;;;;8.61;4.64;;;;;;;;;;362661;145;858170;-60
2021/07/13 05:17:38;;;;;;;6.65;4.59;;;;;;;;;;363409;146;858236;-61
2021/07/13 05:18:39;;;;;;;8.21;5.44;;;;;;;;;;364659;145;857394;-58
2021/07/13 05:19:44;;;;;;;6.65;4.79;;;;;;;;;;363157;145;865564;-58
2021/07/13 05:20:50;;;;;;;10.09;5.12;;;;;;;;;;365005;147;863566;-59
2021/07/13 05:21:56;;;;;;;7.51;5.49;;;;;;;;;;362214;145;857752;-57
2021/07/13 05:22:59;;;;;;;6.90;5.14;;;;;;;;;;362753;144;857342;-58
2021/07/13 05:24:01;;;;;;;12.06;5.12;;;;;;;;;;363298;146;859338;-58
2021/07/13 05:25:03;;;;;;;9.19;4.82;;;;;;;;;;363006;145;857253;-57
2021/07/13 05:26:05;;;;;;;10.53;5.00;;;;;;;;;;363066;145;858955;-56
2021/07/13 05:27:11;;;;;;;7.24;4.98;;;;;;;;;;363614;145;857460;-57
2021/07/13 05:28:10;;;;;;;8.64;4.95;;;;;;;;;;363234;146;865792;-58
2021/07/13 05:29:12;;;;;;;10.73;5.28;;;;;;;;;;362274;145;857339;-57
2021/07/13 05:30:16;;;;;;;11.98;5.77;;;;;;;;;;362864;145;858294;-58
2021/07/13 05:31:18;;;;;;;9.95;5.44;;;;;;;;;;364909;147;857338;-58
2021/07/13 05:32:19;;;;;;;12.89;5.77;;;;;;;;;;362287;145;857571;-58
2021/07/13 05:33:21;;;;;;;6.84;5.25;;;;;;;;;;363212;146;866831;-58
2021/07/13 05:34:23;;;;;;;7.13;5.04;;;;;;;;;;368847;145;865997;-58
2021/07/13 05:35:24;;;;;;;9.37;5.36;;;;;;;;;;363191;148;860168;-58
2021/07/13 05:36:27;;;;;;;8.49;5.33;;;;;;;;;;362650;145;856791;-58
2021/07/13 05:37:28;;;;;;;9.32;5.12;;;;;;;;;;362244;145;858314;-58
2021/07/13 05:38:30;;;;;;;7.79;5.36;;;;;;;;;;363519;147;860170;-58
2021/07/13 05:39:31;;;;;;;10.36;4.66;;;;;;;;;;364608;145;857255;-58
2021/07/13 05:40:34;;;;;;;11.76;5.28;;;;;;;;;;363301;145;858080;-58
2021/07/13 05:41:37;;;;;;;6.91;5.04;;;;;;;;;;362697;145;857287;-58
2021/07/13 05:42:39;;;;;;;8.79;5.16;;;;;;;;;;363062;148;857291;-58
2021/07/13 05:43:41;;;;;;;7.62;5.19;;;;;;;;;;363899;145;857272;-57
2021/07/13 05:44:43;;;;;;;10.85;5.20;;;;;;;;;;362351;145;864846;-58
2021/07/13 05:45:45;;;;;;;8.19;4.92;;;;;;;;;;362512;148;857401;-58
2021/07/13 05:46:47;;;;;;;7.94;4.87;;;;;;;;;;362413;146;857366;-59
2021/07/13 05:47:48;;;;;;;10.11;4.72;;;;;;;;;;363429;145;857299;-59
2021/07/13 05:48:50;;;;;;;6.24;4.77;;;;;;;;;;362749;145;859028;-58
2021/07/13 05:49:54;;;;;;;6.89;4.60;;;;;;;;;;354570;151;858886;-57
2021/07/13 05:50:56;;;;;;;9.24;4.42;;;;;;;;;;354921;150;866157;-57
2021/07/13 05:51:57;;;;;;;9.64;4.36;;;;;;;;;;362277;146;857316;-58
2021/07/13 05:53:01;;;;;;;8.07;4.36;;;;;;;;;;362326;148;857435;-58